Time;durP1;ratioP1;P1;durP2;ratioP2;P2;SDS_P1;SDS_P2;PMS_P1;PMS_P2;Temp;Humidity;BMP_temperature;BMP_pressure;BME280_temperature;BME280_humidity;BME280_pressure;Samples;Min_cycle;Max_cycle;Signal;HPM_P1;HPM_P2
2021/12/10 00:01:12;;;;;;;27.50;10.95;;;4.60;99.90;;;;;;5031728;28;20029;-76
2021/12/10 00:03:44;;;;;;;30.10;10.27;;;4.50;99.90;;;;;;5031087;28;20017;-76
2021/12/10 00:06:17;;;;;;;39.53;11.50;;;4.50;99.90;;;;;;5031529;28;20029;-75
2021/12/10 00:08:46;;;;;;;33.72;11.52;;;4.40;99.90;;;;;;5031507;28;20037;-76
2021/12/10 00:11:23;;;;;;;26.60;10.98;;;4.40;99.90;;;;;;5031428;28;20519;-74
2021/12/10 00:13:49;;;;;;;28.45;10.68;;;4.30;99.90;;;;;;5031078;28;20028;-75
2021/12/10 00:16:16;;;;;;;26.98;11.23;;;4.20;99.90;;;;;;5031517;28;20121;-75
2021/12/10 00:18:50;;;;;;;23.45;12.23;;;4.10;99.90;;;;;;5031436;28;20048;-73
2021/12/10 00:21:16;;;;;;;32.30;11.82;;;4.10;99.90;;;;;;5040294;28;20025;-75
2021/12/10 00:23:46;;;;;;;23.20;11.02;;;4.10;99.90;;;;;;5051301;28;20432;-76
2021/12/10 00:26:12;;;;;;;33.42;12.10;;;4.00;99.90;;;;;;5051158;28;20470;-76
2021/12/10 00:28:39;;;;;;;39.80;12.68;;;3.90;99.90;;;;;;5051186;28;20096;-76
2021/12/10 00:31:42;;;;;;;32.42;11.35;;;3.90;99.90;;;;;;5051336;28;20021;-76
2021/12/10 00:34:36;;;;;;;38.03;12.20;;;3.90;99.90;;;;;;5051098;28;20132;-75
2021/12/10 00:37:05;;;;;;;29.33;11.80;;;4.00;99.90;;;;;;5051288;28;20041;-75
2021/12/10 00:39:35;;;;;;;29.20;13.05;;;3.90;99.90;;;;;;5051019;28;20111;-75
2021/12/10 00:42:06;;;;;;;32.08;12.27;;;3.90;99.90;;;;;;5051285;28;20052;-75
2021/12/10 00:44:32;;;;;;;28.73;13.15;;;3.90;99.90;;;;;;5051118;28;20025;-75
2021/12/10 00:46:58;;;;;;;34.13;12.50;;;3.90;99.90;;;;;;5050996;28;20025;-75
2021/12/10 00:49:24;;;;;;;37.25;12.70;;;3.90;99.90;;;;;;5051143;28;20021;-75
2021/12/10 00:51:50;;;;;;;29.73;13.27;;;4.00;99.90;;;;;;5054819;28;20371;-74
2021/12/10 00:54:16;;;;;;;30.95;13.45;;;4.00;99.90;;;;;;5054523;28;20483;-76
2021/12/10 00:56:42;;;;;;;31.60;13.05;;;4.00;99.90;;;;;;5053880;28;20036;-76
2021/12/10 00:59:11;;;;;;;31.08;14.32;;;4.10;99.90;;;;;;5053260;28;20126;-76
2021/12/10 01:01:38;;;;;;;31.85;15.98;;;4.10;99.90;;;;;;5054478;28;20497;-76
2021/12/10 01:04:09;;;;;;;30.25;13.45;;;4.20;99.90;;;;;;5054527;28;20094;-75
2021/12/10 01:06:35;;;;;;;28.67;14.68;;;4.10;99.90;;;;;;5054493;28;20505;-75
2021/12/10 01:09:13;;;;;;;30.55;14.63;;;4.20;99.90;;;;;;5054328;28;20080;-73
2021/12/10 01:11:50;;;;;;;29.55;16.30;;;4.20;99.90;;;;;;5053242;28;20091;-75
2021/12/10 01:14:26;;;;;;;42.47;16.15;;;4.20;99.90;;;;;;5054322;28;20032;-76
2021/12/10 01:25:25;;;;;;;32.10;15.90;;;4.20;99.90;;;;;;5031999;28;20116;-76
2021/12/10 01:27:51;;;;;;;33.60;18.60;;;4.20;99.90;;;;;;5031701;28;20026;-76
2021/12/10 01:30:20;;;;;;;28.88;15.93;;;4.20;99.90;;;;;;5031789;28;20037;-75
2021/12/10 01:32:56;;;;;;;35.83;15.88;;;4.20;99.90;;;;;;5031784;28;20412;-75
2021/12/10 01:35:29;;;;;;;25.73;15.25;;;4.20;99.90;;;;;;5031681;28;20036;-75
2021/12/10 01:37:56;;;;;;;31.02;15.73;;;4.20;99.90;;;;;;5031652;28;20481;-75
2021/12/10 01:40:25;;;;;;;34.20;14.50;;;4.20;99.90;;;;;;5031485;28;20120;-75
2021/12/10 01:42:53;;;;;;;31.42;15.48;;;4.10;99.90;;;;;;5031644;28;20443;-76
2021/12/10 01:45:26;;;;;;;30.60;16.30;;;4.10;99.90;;;;;;5031481;28;20033;-76
2021/12/10 01:48:02;;;;;;;26.38;15.00;;;4.10;99.90;;;;;;5030999;28;20041;-76
2021/12/10 01:50:29;;;;;;;32.22;15.38;;;4.10;99.90;;;;;;5031191;28;20043;-73
2021/12/10 01:52:57;;;;;;;32.30;14.60;;;4.00;99.90;;;;;;5030704;28;20034;-76
2021/12/10 01:55:26;;;;;;;30.92;14.07;;;3.90;99.90;;;;;;5031227;28;20025;-76
2021/12/10 01:57:52;;;;;;;33.00;13.82;;;3.90;99.90;;;;;;5052534;28;20057;-73
2021/12/10 02:00:22;;;;;;;27.52;14.10;;;3.80;99.90;;;;;;5053596;28;20434;-74
2021/12/10 02:02:49;;;;;;;29.88;13.93;;;3.80;99.90;;;;;;5052586;28;20041;-75
2021/12/10 02:05:16;;;;;;;26.27;13.15;;;3.70;99.90;;;;;;5053224;28;20035;-75
2021/12/10 02:07:43;;;;;;;24.17;13.32;;;3.60;99.90;;;;;;5053692;28;20028;-75
2021/12/10 02:10:11;;;;;;;29.45;12.95;;;3.60;99.90;;;;;;5051875;28;20029;-76
2021/12/10 02:12:37;;;;;;;30.90;12.32;;;3.60;99.90;;;;;;5053345;28;20057;-75
2021/12/10 02:15:05;;;;;;;24.08;11.93;;;3.50;99.90;;;;;;5053162;28;20059;-75
2021/12/10 02:17:40;;;;;;;23.38;11.52;;;3.50;99.90;;;;;;5053055;28;20025;-75
2021/12/10 02:20:11;;;;;;;25.08;12.25;;;3.50;99.90;;;;;;5052945;28;20021;-75
2021/12/10 02:22:37;;;;;;;22.17;11.07;;;3.50;99.90;;;;;;5033112;28;20025;-75
2021/12/10 02:25:05;;;;;;;25.20;10.65;;;3.50;99.90;;;;;;5032805;28;20025;-75
2021/12/10 02:27:31;;;;;;;20.92;11.18;;;3.40;99.90;;;;;;5032993;28;20425;-75
2021/12/10 02:29:56;;;;;;;24.73;11.70;;;3.30;99.90;;;;;;5033112;28;20030;-75
2021/12/10 02:32:23;;;;;;;28.10;9.77;;;3.30;99.90;;;;;;5032978;28;20637;-75
2021/12/10 02:34:50;;;;;;;21.92;9.77;;;3.30;99.90;;;;;;5032866;28;20100;-75
2021/12/10 02:37:16;;;;;;;26.85;10.70;;;3.30;99.90;;;;;;5032914;28;20049;-75
2021/12/10 02:39:42;;;;;;;17.05;8.68;;;3.20;99.90;;;;;;5032710;28;20071;-75
2021/12/10 02:42:08;;;;;;;27.67;9.93;;;3.20;99.90;;;;;;5032806;28;20104;-75
2021/12/10 02:44:34;;;;;;;22.60;9.65;;;3.20;99.90;;;;;;5032682;28;20053;-75
2021/12/10 02:47:00;;;;;;;17.23;9.40;;;3.10;99.90;;;;;;5032560;28;20158;-75
2021/12/10 02:49:28;;;;;;;18.08;8.88;;;3.20;99.90;;;;;;5040085;28;20128;-75
2021/12/10 02:51:53;;;;;;;14.20;8.32;;;3.20;99.90;;;;;;5052503;28;20036;-73
2021/12/10 02:54:23;;;;;;;19.25;8.13;;;3.10;99.90;;;;;;5052228;28;20028;-75
2021/12/10 02:56:51;;;;;;;21.42;8.05;;;3.20;99.90;;;;;;5052424;28;20027;-75
2021/12/10 02:59:17;;;;;;;17.02;8.30;;;3.20;99.90;;;;;;5052424;28;20110;-75
2021/12/10 03:01:47;;;;;;;21.48;8.60;;;3.10;99.90;;;;;;5051000;28;20031;-75
2021/12/10 03:04:14;;;;;;;20.33;7.60;;;3.20;99.90;;;;;;5052188;28;20123;-75
2021/12/10 03:06:49;;;;;;;17.67;7.97;;;3.10;99.90;;;;;;5052262;28;20025;-75
2021/12/10 03:09:16;;;;;;;21.42;7.28;;;3.10;99.90;;;;;;5052012;28;20032;-75
2021/12/10 03:11:49;;;;;;;19.67;6.25;;;3.20;99.90;;;;;;5052214;28;20100;-75
2021/12/10 03:14:18;;;;;;;16.38;7.20;;;3.20;99.90;;;;;;5051883;28;20086;-75
2021/12/10 03:16:46;;;;;;;12.05;6.60;;;3.20;99.90;;;;;;5052238;28;20103;-75
2021/12/10 03:19:12;;;;;;;18.85;6.85;;;3.30;99.90;;;;;;5051829;28;20515;-75
2021/12/10 03:21:44;;;;;;;12.07;5.90;;;3.20;99.90;;;;;;5051900;28;20120;-75
2021/12/10 03:24:11;;;;;;;11.30;5.68;;;3.20;99.90;;;;;;5051723;28;20464;-75
2021/12/10 03:26:36;;;;;;;18.00;6.57;;;3.20;99.90;;;;;;5051841;28;20027;-75
2021/12/10 03:29:04;;;;;;;21.67;6.88;;;3.20;99.90;;;;;;5051797;28;20017;-75
2021/12/10 03:31:30;;;;;;;20.60;7.50;;;3.20;99.90;;;;;;5051906;28;20044;-75
2021/12/10 03:33:56;;;;;;;20.15;7.05;;;3.20;99.90;;;;;;5051753;28;20108;-75
2021/12/10 03:36:22;;;;;;;18.27;7.53;;;3.20;99.90;;;;;;5051820;28;20518;-75
2021/12/10 03:38:48;;;;;;;19.60;7.53;;;3.20;99.90;;;;;;5051725;28;20104;-75
2021/12/10 03:41:14;;;;;;;16.33;6.55;;;3.20;99.90;;;;;;5051629;28;20036;-75
2021/12/10 03:43:43;;;;;;;13.60;7.47;;;3.10;99.90;;;;;;5051660;28;20041;-75
2021/12/10 03:46:08;;;;;;;14.82;6.97;;;3.10;99.90;;;;;;5051694;28;20104;-75
2021/12/10 03:48:40;;;;;;;18.35;6.85;;;3.10;99.90;;;;;;5051334;28;20136;-75
2021/12/10 03:51:09;;;;;;;14.00;7.13;;;3.10;99.90;;;;;;5050210;28;20116;-75
2021/12/10 03:53:35;;;;;;;27.00;7.78;;;3.00;99.90;;;;;;5051501;28;20124;-75
2021/12/10 03:56:06;;;;;;;14.80;6.47;;;3.00;99.90;;;;;;5051520;28;20044;-75
2021/12/10 03:58:32;;;;;;;18.90;6.70;;;2.90;99.90;;;;;;5051344;28;20487;-75
2021/12/10 04:00:59;;;;;;;12.98;6.00;;;3.00;99.90;;;;;;5051526;28;20038;-75
2021/12/10 04:03:27;;;;;;;18.50;6.47;;;3.00;99.90;;;;;;5050145;28;20125;-75
2021/12/10 04:05:54;;;;;;;14.77;5.97;;;3.00;99.90;;;;;;5051324;28;20021;-75
2021/12/10 04:08:20;;;;;;;16.63;6.18;;;3.00;99.90;;;;;;5051224;28;20041;-75
2021/12/10 04:10:47;;;;;;;11.65;5.47;;;3.00;99.90;;;;;;5050097;28;20025;-75
2021/12/10 04:13:13;;;;;;;15.57;6.07;;;3.10;99.90;;;;;;5051414;28;20040;-75
2021/12/10 04:15:39;;;;;;;17.02;6.13;;;3.10;99.90;;;;;;5051397;28;20031;-75
2021/12/10 04:18:07;;;;;;;11.40;5.95;;;3.00;99.90;;;;;;5050119;28;20410;-75
2021/12/10 04:20:34;;;;;;;17.90;7.18;;;3.00;99.90;;;;;;5051090;28;20031;-75
2021/12/10 04:23:03;;;;;;;19.45;6.72;;;3.00;99.90;;;;;;5051418;28;20096;-75
2021/12/10 04:25:29;;;;;;;14.75;5.80;;;3.10;99.90;;;;;;5053287;28;20036;-75
2021/12/10 04:27:58;;;;;;;14.95;6.15;;;3.20;99.90;;;;;;5055155;28;20020;-75
2021/12/10 04:30:24;;;;;;;14.98;5.38;;;3.10;99.90;;;;;;5055198;28;20074;-75
2021/12/10 04:32:50;;;;;;;13.73;6.25;;;3.20;99.90;;;;;;5055104;28;20108;-75
2021/12/10 04:35:18;;;;;;;17.40;6.53;;;3.20;99.90;;;;;;5053725;28;20124;-75
2021/12/10 04:37:45;;;;;;;12.25;6.00;;;3.20;99.90;;;;;;5054945;28;20032;-75
2021/12/10 04:40:16;;;;;;;15.50;5.70;;;3.10;99.90;;;;;;5054877;28;20028;-75
2021/12/10 04:42:42;;;;;;;14.27;6.32;;;3.20;99.90;;;;;;5054938;28;20105;-75
2021/12/10 04:45:09;;;;;;;14.68;5.95;;;3.30;99.90;;;;;;5055050;28;20053;-75
2021/12/10 04:47:36;;;;;;;12.50;5.47;;;3.20;99.90;;;;;;5054645;28;20606;-75
2021/12/10 04:50:05;;;;;;;15.55;4.88;;;3.30;99.90;;;;;;5041897;28;20033;-75
2021/12/10 04:52:32;;;;;;;8.65;4.80;;;3.20;99.90;;;;;;5066766;28;20032;-75
2021/12/10 04:54:58;;;;;;;12.43;5.30;;;3.20;99.90;;;;;;5066515;28;20018;-75
2021/12/10 04:57:23;;;;;;;13.38;5.55;;;3.20;99.90;;;;;;5034743;28;20792;-75
2021/12/10 04:59:49;;;;;;;17.15;5.50;;;3.20;99.90;;;;;;5034825;28;20041;-75
2021/12/10 05:02:16;;;;;;;14.52;5.07;;;3.20;99.90;;;;;;5034776;28;20057;-75
2021/12/10 05:04:44;;;;;;;11.82;5.05;;;3.20;99.90;;;;;;5034561;28;20022;-75
2021/12/10 05:07:11;;;;;;;9.60;4.70;;;3.20;99.90;;;;;;5034670;28;20029;-75
2021/12/10 05:09:37;;;;;;;14.35;5.15;;;3.20;99.90;;;;;;5034426;28;20108;-75
2021/12/10 05:12:03;;;;;;;15.77;5.32;;;3.20;99.90;;;;;;5034508;28;20105;-75
2021/12/10 05:14:31;;;;;;;36.08;7.72;;;3.20;99.90;;;;;;5034429;28;20400;-75
2021/12/10 05:17:02;;;;;;;12.00;4.78;;;3.20;99.90;;;;;;5034592;28;20030;-75
2021/12/10 05:19:28;;;;;;;12.75;5.15;;;3.30;99.90;;;;;;5034072;28;20034;-75
2021/12/10 05:21:54;;;;;;;10.10;4.22;;;3.30;99.90;;;;;;5048340;28;20025;-75
2021/12/10 05:24:20;;;;;;;12.85;4.72;;;3.30;99.90;;;;;;5053956;28;20357;-75
2021/12/10 05:26:47;;;;;;;12.80;4.60;;;3.30;99.90;;;;;;5053920;28;20562;-75
2021/12/10 05:29:13;;;;;;;14.23;3.65;;;3.30;99.90;;;;;;5054174;28;20387;-75
2021/12/10 05:31:43;;;;;;;11.18;4.35;;;3.40;99.90;;;;;;5054024;28;20022;-75
2021/12/10 05:34:09;;;;;;;15.50;3.83;;;3.40;99.90;;;;;;5053822;28;20764;-75
2021/12/10 05:36:34;;;;;;;12.15;3.83;;;3.40;99.90;;;;;;5051183;28;20036;-75
2021/12/10 05:39:00;;;;;;;13.82;3.38;;;3.40;99.90;;;;;;5053848;28;20029;-75
2021/12/10 05:41:26;;;;;;;14.63;4.15;;;3.40;99.90;;;;;;5052635;28;20024;-75
2021/12/10 05:43:51;;;;;;;10.88;3.85;;;3.40;99.90;;;;;;5053722;28;20451;-75
2021/12/10 05:46:18;;;;;;;15.43;3.85;;;3.40;99.90;;;;;;5053906;28;20049;-75
2021/12/10 05:48:44;;;;;;;11.45;3.88;;;3.40;99.90;;;;;;5053440;28;20045;-75
2021/12/10 05:51:11;;;;;;;14.38;3.72;;;3.40;99.90;;;;;;5053626;28;20386;-75
2021/12/10 05:53:37;;;;;;;13.13;3.63;;;3.50;99.90;;;;;;5053654;28;20384;-75
2021/12/10 05:56:04;;;;;;;13.57;3.30;;;3.50;99.90;;;;;;5053433;28;20021;-75
2021/12/10 05:58:29;;;;;;;12.60;3.63;;;3.40;99.90;;;;;;5053464;28;20075;-75
2021/12/10 06:01:02;;;;;;;10.52;3.20;;;3.40;99.90;;;;;;5052116;28;20025;-75
2021/12/10 06:03:28;;;;;;;15.60;4.00;;;3.50;99.90;;;;;;5053439;28;20025;-75
2021/12/10 06:05:53;;;;;;;11.68;3.90;;;3.40;99.90;;;;;;5053234;28;20473;-75
2021/12/10 06:08:20;;;;;;;8.85;3.97;;;3.50;99.90;;;;;;5053751;28;20096;-75
2021/12/10 06:10:48;;;;;;;13.15;3.90;;;3.50;99.90;;;;;;5053153;28;20028;-75
2021/12/10 06:13:15;;;;;;;14.77;4.13;;;3.40;99.90;;;;;;5053192;28;20017;-75
2021/12/10 06:15:40;;;;;;;15.60;4.43;;;3.50;99.90;;;;;;5053198;28;20368;-75
2021/12/10 06:18:08;;;;;;;12.90;4.53;;;3.40;99.90;;;;;;5053047;28;20029;-75
2021/12/10 06:20:37;;;;;;;15.85;4.47;;;3.40;99.90;;;;;;5044691;28;20029;-75
2021/12/10 06:23:04;;;;;;;14.10;3.85;;;3.30;99.90;;;;;;5053072;28;20033;-75
2021/12/10 06:25:31;;;;;;;14.02;4.07;;;3.40;99.90;;;;;;5052745;28;20162;-75
2021/12/10 06:27:57;;;;;;;12.77;4.50;;;3.40;99.90;;;;;;5052984;28;20489;-75
2021/12/10 06:30:26;;;;;;;11.88;4.30;;;3.30;99.90;;;;;;5052879;28;20029;-75
2021/12/10 06:32:54;;;;;;;13.38;3.90;;;3.40;99.90;;;;;;5052845;28;20029;-75
2021/12/10 06:35:22;;;;;;;17.25;4.45;;;3.40;99.90;;;;;;5051536;28;20116;-75
2021/12/10 06:37:49;;;;;;;16.75;5.03;;;3.50;99.90;;;;;;5051275;28;20029;-75
2021/12/10 06:40:17;;;;;;;13.52;3.83;;;3.50;99.90;;;;;;5051325;28;20098;-75
2021/12/10 06:42:43;;;;;;;11.15;4.32;;;3.50;99.90;;;;;;5052585;28;20048;-75
2021/12/10 06:45:12;;;;;;;14.07;4.18;;;3.50;99.90;;;;;;5052625;28;20029;-75
2021/12/10 06:47:40;;;;;;;12.98;4.18;;;3.50;99.90;;;;;;5052084;28;20424;-75
2021/12/10 06:50:07;;;;;;;13.48;4.40;;;3.40;99.90;;;;;;5052143;28;20087;-75
2021/12/10 06:52:32;;;;;;;10.88;4.25;;;3.50;99.90;;;;;;5052517;28;20067;-75
2021/12/10 06:54:58;;;;;;;11.75;4.55;;;3.50;99.90;;;;;;5052311;28;20056;-75
2021/12/10 06:57:24;;;;;;;19.58;4.20;;;3.50;99.90;;;;;;5052281;28;20021;-75
2021/12/10 06:59:50;;;;;;;9.85;3.67;;;3.50;99.90;;;;;;5052451;28;20379;-75
2021/12/10 07:02:16;;;;;;;19.08;4.47;;;3.50;99.90;;;;;;5052374;28;20036;-75
2021/12/10 07:04:42;;;;;;;10.77;3.72;;;3.50;99.90;;;;;;5052153;28;20029;-75
2021/12/10 07:07:09;;;;;;;11.52;3.83;;;3.50;99.90;;;;;;5052222;28;20032;-75
2021/12/10 07:09:35;;;;;;;13.93;4.32;;;3.60;99.90;;;;;;5052015;28;20104;-75
2021/12/10 07:12:02;;;;;;;18.00;4.20;;;3.50;99.90;;;;;;5052263;28;20028;-75
2021/12/10 07:14:28;;;;;;;13.50;4.22;;;3.50;99.90;;;;;;5052124;28;20021;-75
2021/12/10 07:16:54;;;;;;;10.10;3.13;;;3.50;99.90;;;;;;5052101;28;20387;-75
2021/12/10 07:19:19;;;;;;;11.93;3.55;;;3.50;99.90;;;;;;5050630;28;20040;-75
2021/12/10 07:21:45;;;;;;;9.25;3.42;;;3.60;99.90;;;;;;5045005;28;20074;-75
2021/12/10 07:24:14;;;;;;;14.20;4.50;;;3.60;99.90;;;;;;5051833;28;20087;-75
2021/12/10 07:26:40;;;;;;;16.33;3.92;;;3.50;99.90;;;;;;5050422;28;20025;-75
2021/12/10 07:29:07;;;;;;;10.55;3.47;;;3.70;99.90;;;;;;5051872;28;20091;-75
2021/12/10 07:31:35;;;;;;;23.20;3.70;;;3.70;99.90;;;;;;5051850;28;20079;-75
2021/12/10 07:34:02;;;;;;;12.77;3.90;;;3.70;99.90;;;;;;5051723;28;20031;-75
2021/12/10 07:36:28;;;;;;;10.20;2.92;;;3.60;99.90;;;;;;5051925;28;20029;-75
2021/12/10 07:38:56;;;;;;;10.60;3.17;;;3.70;99.90;;;;;;5051835;28;20032;-75
2021/12/10 07:41:22;;;;;;;16.88;3.40;;;3.60;99.90;;;;;;5051720;28;20031;-75
2021/12/10 07:43:48;;;;;;;11.35;3.20;;;3.60;99.90;;;;;;5051441;28;20029;-75
2021/12/10 07:46:13;;;;;;;12.95;3.13;;;3.70;99.90;;;;;;5049678;28;20035;-75
2021/12/10 07:48:42;;;;;;;15.35;3.17;;;3.70;99.90;;;;;;5051003;28;20072;-75
2021/12/10 07:51:15;;;;;;;18.83;5.03;;;3.70;99.90;;;;;;5047120;28;20024;-75
2021/12/10 07:53:42;;;;;;;14.48;4.05;;;3.70;99.90;;;;;;5051290;28;20029;-75
2021/12/10 07:56:11;;;;;;;17.65;3.72;;;3.70;99.90;;;;;;5046989;28;20055;-75
2021/12/10 07:58:40;;;;;;;12.68;3.67;;;3.70;99.90;;;;;;5049821;28;20028;-75
2021/12/10 08:01:09;;;;;;;15.57;3.38;;;3.70;99.90;;;;;;5054482;28;20021;-75
2021/12/10 08:03:35;;;;;;;12.23;4.05;;;3.80;99.90;;;;;;5055202;28;20428;-75
2021/12/10 08:06:00;;;;;;;12.02;3.10;;;3.90;99.90;;;;;;5055633;28;20029;-75
2021/12/10 08:08:26;;;;;;;16.17;3.22;;;3.80;99.90;;;;;;5056193;28;20079;-77
2021/12/10 08:10:53;;;;;;;11.35;3.10;;;3.80;99.90;;;;;;5055686;28;20502;-78
2021/12/10 08:13:23;;;;;;;15.10;3.25;;;3.80;99.90;;;;;;5041944;28;20032;-77
2021/12/10 08:15:52;;;;;;;14.98;3.60;;;3.90;99.90;;;;;;5051597;28;20039;-77
2021/12/10 08:18:18;;;;;;;11.35;3.40;;;3.90;99.90;;;;;;5052955;28;20399;-77
2021/12/10 08:20:44;;;;;;;13.10;3.30;;;3.90;99.90;;;;;;5054295;28;20025;-77
2021/12/10 08:23:10;;;;;;;10.82;3.53;;;4.00;99.90;;;;;;5054749;28;20497;-77
2021/12/10 08:25:36;;;;;;;8.65;3.47;;;4.00;99.90;;;;;;5054283;28;20029;-77
2021/12/10 08:28:04;;;;;;;12.45;3.65;;;3.90;99.90;;;;;;5054683;28;20099;-77
2021/12/10 08:30:32;;;;;;;13.50;4.63;;;4.00;99.90;;;;;;5053579;28;20021;-77
2021/12/10 08:32:59;;;;;;;18.10;3.17;;;4.00;99.90;;;;;;5051725;28;20056;-77
2021/12/10 08:35:29;;;;;;;9.82;2.97;;;4.00;99.90;;;;;;5054323;28;20052;-77
2021/12/10 08:37:57;;;;;;;9.90;2.67;;;4.10;99.90;;;;;;5054346;28;20036;-77
2021/12/10 08:40:28;;;;;;;12.50;3.50;;;4.10;99.90;;;;;;5053715;28;20025;-77
2021/12/10 08:42:54;;;;;;;11.63;3.20;;;4.10;99.90;;;;;;5054328;28;20049;-77
2021/12/10 08:45:21;;;;;;;11.68;3.50;;;4.10;99.90;;;;;;5054291;28;20056;-77
2021/12/10 08:47:49;;;;;;;13.63;2.63;;;4.10;99.90;;;;;;5053002;28;20495;-77
2021/12/10 08:50:22;;;;;;;13.63;3.42;;;4.10;99.90;;;;;;5053309;28;20041;-77
2021/12/10 08:52:50;;;;;;;11.95;3.90;;;4.10;99.90;;;;;;5051828;28;20019;-77
2021/12/10 08:55:17;;;;;;;11.38;3.67;;;4.10;99.90;;;;;;5054245;28;20367;-77
2021/12/10 08:57:44;;;;;;;16.63;4.47;;;4.10;99.90;;;;;;5053710;28;20491;-74
2021/12/10 09:00:10;;;;;;;12.40;3.38;;;4.00;99.90;;;;;;5050373;28;20029;-77
2021/12/10 09:02:38;;;;;;;11.13;3.55;;;4.10;99.90;;;;;;5054522;28;20116;-77
2021/12/10 09:05:09;;;;;;;15.32;3.60;;;4.00;99.90;;;;;;5054431;28;20075;-76
2021/12/10 09:07:35;;;;;;;12.60;3.40;;;4.00;99.90;;;;;;5054100;28;20116;-77
2021/12/10 09:10:01;;;;;;;14.13;4.07;;;4.00;99.90;;;;;;5054333;28;20029;-76
2021/12/10 09:12:28;;;;;;;15.18;4.80;;;4.00;99.90;;;;;;5052717;28;20029;-76
2021/12/10 09:14:56;;;;;;;14.68;4.43;;;4.00;99.90;;;;;;5054408;28;20025;-76
2021/12/10 09:17:25;;;;;;;13.25;4.25;;;4.10;99.90;;;;;;5054346;28;20025;-76
2021/12/10 09:19:53;;;;;;;10.73;4.20;;;4.10;99.90;;;;;;5048488;28;20471;-76
2021/12/10 09:22:19;;;;;;;12.48;4.07;;;4.10;99.90;;;;;;5052993;28;20036;-76
2021/12/10 09:24:46;;;;;;;12.50;3.80;;;4.10;99.90;;;;;;5053822;28;20044;-75
2021/12/10 09:27:13;;;;;;;16.88;4.45;;;4.00;99.90;;;;;;5054488;28;20037;-74
2021/12/10 09:29:42;;;;;;;17.25;4.43;;;4.00;99.90;;;;;;5054094;28;20025;-74
2021/12/10 09:32:11;;;;;;;10.88;4.20;;;4.10;99.90;;;;;;5054150;28;20043;-75
2021/12/10 09:34:37;;;;;;;15.07;4.05;;;4.00;99.90;;;;;;5053924;28;20452;-75
2021/12/10 09:37:04;;;;;;;16.67;4.43;;;4.10;99.90;;;;;;5054063;28;20037;-74
2021/12/10 09:39:31;;;;;;;16.08;4.40;;;4.10;99.90;;;;;;5053691;28;20372;-76
2021/12/10 09:41:57;;;;;;;15.45;5.20;;;4.10;99.90;;;;;;5052846;28;20086;-75
2021/12/10 09:44:24;;;;;;;18.63;4.50;;;4.20;99.90;;;;;;5053818;28;20029;-74
2021/12/10 09:46:51;;;;;;;16.70;4.88;;;4.20;99.90;;;;;;5053569;28;20116;-75
2021/12/10 09:49:17;;;;;;;17.05;4.40;;;4.20;99.90;;;;;;5045626;28;20049;-75
2021/12/10 09:51:54;;;;;;;14.30;4.28;;;4.20;99.90;;;;;;5045492;28;20158;-75
2021/12/10 09:54:23;;;;;;;12.48;3.83;;;4.30;99.90;;;;;;5053012;28;20036;-75
2021/12/10 09:56:55;;;;;;;10.20;4.32;;;4.40;99.90;;;;;;5053469;28;20052;-75
2021/12/10 09:59:22;;;;;;;17.20;5.32;;;4.40;99.90;;;;;;5051754;28;20460;-75
2021/12/10 10:01:52;;;;;;;14.85;3.80;;;4.40;99.90;;;;;;5053423;28;20036;-75
2021/12/10 10:04:19;;;;;;;16.85;4.30;;;4.50;99.90;;;;;;5053050;28;20032;-75
2021/12/10 10:06:50;;;;;;;13.02;3.78;;;4.50;99.90;;;;;;5052807;28;20355;-75
2021/12/10 10:09:18;;;;;;;14.98;3.65;;;4.60;99.90;;;;;;5052553;28;20489;-75
2021/12/10 10:11:46;;;;;;;8.77;3.55;;;4.50;99.90;;;;;;5053055;28;20455;-75
2021/12/10 10:14:11;;;;;;;11.73;3.80;;;4.60;99.90;;;;;;5052901;28;20037;-75
2021/12/10 10:16:43;;;;;;;13.32;3.85;;;4.60;99.90;;;;;;5041656;28;20475;-75
2021/12/10 10:19:09;;;;;;;11.20;3.43;;;4.60;99.90;;;;;;5032708;28;20025;-75
2021/12/10 10:21:42;;;;;;;12.00;3.70;;;4.60;99.90;;;;;;5032754;28;20029;-75
2021/12/10 10:24:11;;;;;;;11.05;3.60;;;4.60;99.90;;;;;;5032172;28;20025;-75
2021/12/10 10:26:42;;;;;;;11.30;3.70;;;4.50;99.90;;;;;;5032795;28;20030;-75
2021/12/10 10:29:12;;;;;;;13.13;4.25;;;4.60;99.90;;;;;;5032953;28;20025;-75
2021/12/10 10:31:46;;;;;;;14.23;3.95;;;4.60;99.90;;;;;;5032842;28;20022;-75
2021/12/10 10:34:13;;;;;;;15.32;4.10;;;4.70;99.90;;;;;;5032682;28;20152;-75
2021/12/10 10:36:39;;;;;;;11.00;3.55;;;4.80;99.90;;;;;;5032817;28;20030;-76
2021/12/10 10:39:09;;;;;;;13.65;3.45;;;4.90;99.90;;;;;;5032539;28;20029;-75
2021/12/10 10:41:38;;;;;;;12.82;3.40;;;4.90;99.90;;;;;;5034640;28;20110;-75
2021/12/10 10:44:05;;;;;;;9.05;3.15;;;5.00;99.90;;;;;;5050714;28;20036;-75
2021/12/10 10:46:31;;;;;;;13.30;3.53;;;5.10;99.90;;;;;;5052442;28;20558;-75
2021/12/10 10:48:57;;;;;;;13.93;2.97;;;5.10;99.90;;;;;;5051793;28;20534;-75
2021/12/10 10:51:30;;;;;;;14.88;3.38;;;5.10;99.90;;;;;;5052190;28;20025;-75
2021/12/10 10:53:59;;;;;;;14.15;3.25;;;5.20;99.90;;;;;;5052220;28;20107;-75
2021/12/10 10:56:30;;;;;;;11.65;2.83;;;5.30;99.90;;;;;;5052161;28;20044;-76
2021/12/10 10:59:01;;;;;;;7.90;3.05;;;5.40;99.90;;;;;;5052188;28;20454;-76
2021/12/10 11:01:35;;;;;;;11.45;3.60;;;5.40;99.90;;;;;;5049099;28;20055;-76
2021/12/10 11:04:04;;;;;;;14.13;3.00;;;5.40;99.90;;;;;;5051713;28;20029;-76
2021/12/10 11:06:34;;;;;;;11.13;2.63;;;5.40;99.90;;;;;;5049157;28;20554;-76
2021/12/10 11:09:21;;;;;;;11.45;3.10;;;5.40;99.90;;;;;;5049857;28;20025;-75
2021/12/10 11:11:52;;;;;;;15.98;3.10;;;5.40;99.90;;;;;;5051488;28;20029;-76
2021/12/10 11:14:48;;;;;;;12.80;3.70;;;5.50;99.90;;;;;;5051681;28;20017;-75
2021/12/10 11:17:34;;;;;;;9.63;2.60;;;5.50;99.90;;;;;;5050146;28;20028;-77
2021/12/10 11:20:26;;;;;;;9.27;2.80;;;5.60;99.90;;;;;;5045128;28;20032;-76
2021/12/10 11:23:02;;;;;;;9.18;2.75;;;5.60;99.90;;;;;;5047152;28;20052;-76
2021/12/10 11:25:42;;;;;;;12.60;3.10;;;5.50;99.90;;;;;;5031772;28;20464;-79
2021/12/10 11:28:17;;;;;;;13.10;2.58;;;5.50;99.90;;;;;;5050848;28;20037;-79
2021/12/10 11:30:50;;;;;;;10.85;2.63;;;5.60;99.90;;;;;;5052931;28;20025;-78
2021/12/10 11:33:20;;;;;;;12.32;2.90;;;5.60;99.90;;;;;;5051219;28;20597;-79
2021/12/10 11:35:52;;;;;;;12.52;2.50;;;5.70;99.90;;;;;;5049982;28;20023;-79
2021/12/10 11:38:29;;;;;;;13.95;2.72;;;5.60;99.90;;;;;;5052696;28;20403;-79
2021/12/10 11:41:03;;;;;;;7.30;2.58;;;5.60;99.90;;;;;;5034940;28;20076;-79
2021/12/10 11:44:18;;;;;;;11.45;2.22;;;5.70;99.90;;;;;;5051482;28;20490;-79
2021/12/10 11:47:15;;;;;;;13.32;2.45;;;5.60;99.90;;;;;;5049804;28;20061;-79
2021/12/10 11:49:41;;;;;;;11.63;3.38;;;5.70;99.90;;;;;;5032741;28;20046;-80
2021/12/10 11:52:21;;;;;;;12.98;2.97;;;5.60;99.90;;;;;;5044997;28;20060;-80
2021/12/10 11:54:54;;;;;;;12.00;2.35;;;5.60;99.90;;;;;;5052620;28;20018;-80
2021/12/10 11:57:35;;;;;;;9.73;2.38;;;5.70;99.90;;;;;;5052591;28;20025;-80
2021/12/10 12:00:04;;;;;;;22.17;2.75;;;5.80;99.90;;;;;;5052583;28;20100;-80
2021/12/10 12:02:37;;;;;;;13.90;3.88;;;5.80;99.90;;;;;;5052641;28;20031;-78
2021/12/10 12:05:11;;;;;;;9.05;2.05;;;5.80;99.90;;;;;;5052664;28;20033;-79
2021/12/10 12:07:50;;;;;;;9.75;2.38;;;5.80;99.90;;;;;;5052849;28;20044;-79
2021/12/10 12:10:33;;;;;;;6.93;2.28;;;5.80;99.90;;;;;;5052540;28;20075;-80
2021/12/10 12:13:04;;;;;;;7.72;1.88;;;5.90;99.90;;;;;;5052734;28;20021;-79
2021/12/10 12:15:42;;;;;;;8.70;1.88;;;5.80;99.90;;;;;;5052457;28;20021;-80
2021/12/10 12:18:22;;;;;;;6.43;1.95;;;5.80;99.90;;;;;;5052249;28;20406;-79
2021/12/10 12:27:17;;;;;;;16.20;3.53;;;5.80;99.90;;;;;;5052505;28;20087;-80
2021/12/10 12:29:55;;;;;;;32.45;10.70;;;5.70;99.90;;;;;;5050001;28;20529;-80
2021/12/10 12:32:25;;;;;;;11.07;3.42;;;5.80;99.90;;;;;;5052312;28;20037;-80
2021/12/10 12:34:52;;;;;;;8.30;2.50;;;5.70;99.90;;;;;;5052714;28;20434;-80
2021/12/10 12:37:21;;;;;;;8.27;2.70;;;5.70;99.90;;;;;;5051280;28;20478;-80
2021/12/10 12:39:51;;;;;;;7.38;1.77;;;5.80;99.90;;;;;;5052389;28;20027;-82
2021/12/10 12:42:22;;;;;;;8.80;2.08;;;5.70;99.90;;;;;;5059466;28;20028;-83
2021/12/10 12:44:50;;;;;;;11.57;2.00;;;5.70;99.90;;;;;;5072421;28;20520;-83
2021/12/10 12:47:44;;;;;;;11.93;2.33;;;5.70;99.90;;;;;;5064367;28;20032;-83
2021/12/10 12:50:20;;;;;;;12.50;4.68;;;5.80;99.90;;;;;;5043295;28;20122;-83
2021/12/10 12:52:51;;;;;;;13.50;3.75;;;5.60;99.90;;;;;;5074755;28;20032;-82
2021/12/10 12:55:20;;;;;;;7.57;3.00;;;5.60;99.90;;;;;;5055722;28;20020;-81
2021/12/10 12:58:14;;;;;;;12.45;4.35;;;5.70;99.90;;;;;;5054510;28;20074;-78
2021/12/10 13:01:02;;;;;;;16.05;6.72;;;5.70;99.90;;;;;;5049688;28;20099;-78
2021/12/10 13:03:43;;;;;;;16.42;6.53;;;5.70;99.90;;;;;;5053646;28;20163;-79
2021/12/10 13:06:47;;;;;;;8.27;2.50;;;5.70;99.90;;;;;;5052145;28;20117;-79
2021/12/10 13:09:18;;;;;;;13.23;3.38;;;5.60;99.90;;;;;;5054068;28;20025;-79
2021/12/10 13:12:02;;;;;;;7.90;2.28;;;5.60;99.90;;;;;;5052672;28;20021;-79